sensor_id;sensor_type;location;lat;lon;timestamp;P1;durP1;ratioP1;P2;durP2;ratioP2
2542;SDS011;1116;51.502;7.414;2023-03-08T00:00:04;26.52;;;18.00;;
2542;SDS011;1116;51.502;7.414;2023-03-08T00:02:37;25.48;;;15.82;;
2542;SDS011;1116;51.502;7.414;2023-03-08T00:05:09;24.35;;;16.42;;
2542;SDS011;1116;51.502;7.414;2023-03-08T00:07:40;26.90;;;17.30;;
2542;SDS011;1116;51.502;7.414;2023-03-08T00:10:13;24.13;;;15.95;;
2542;SDS011;1116;51.502;7.414;2023-03-08T00:12:47;23.95;;;15.57;;
2542;SDS011;1116;51.502;7.414;2023-03-08T00:15:21;27.58;;;16.70;;
2542;SDS011;1116;51.502;7.414;2023-03-08T00:17:54;21.02;;;15.60;;
2542;SDS011;1116;51.502;7.414;2023-03-08T00:20:25;23.55;;;14.15;;
2542;SDS011;1116;51.502;7.414;2023-03-08T00:22:56;22.25;;;15.07;;
2542;SDS011;1116;51.502;7.414;2023-03-08T00:25:27;26.02;;;15.38;;
2542;SDS011;1116;51.502;7.414;2023-03-08T00:28:00;21.38;;;15.50;;
2542;SDS011;1116;51.502;7.414;2023-03-08T00:30:31;23.77;;;15.82;;
2542;SDS011;1116;51.502;7.414;2023-03-08T00:33:02;23.58;;;15.05;;
2542;SDS011;1116;51.502;7.414;2023-03-08T00:35:33;23.80;;;16.45;;
2542;SDS011;1116;51.502;7.414;2023-03-08T00:38:04;23.38;;;14.77;;
2542;SDS011;1116;51.502;7.414;2023-03-08T00:40:35;23.63;;;15.65;;
2542;SDS011;1116;51.502;7.414;2023-03-08T00:43:08;21.60;;;15.20;;
2542;SDS011;1116;51.502;7.414;2023-03-08T00:45:39;22.63;;;15.25;;
2542;SDS011;1116;51.502;7.414;2023-03-08T00:48:10;24.08;;;15.48;;
2542;SDS011;1116;51.502;7.414;2023-03-08T00:50:41;22.00;;;15.30;;
2542;SDS011;1116;51.502;7.414;2023-03-08T00:53:12;23.02;;;15.98;;
2542;SDS011;1116;51.502;7.414;2023-03-08T00:55:47;21.17;;;15.18;;
2542;SDS011;1116;51.502;7.414;2023-03-08T00:58:23;22.25;;;15.63;;
2542;SDS011;1116;51.502;7.414;2023-03-08T01:00:56;22.60;;;15.25;;
2542;SDS011;1116;51.502;7.414;2023-03-08T01:03:27;23.80;;;15.65;;
2542;SDS011;1116;51.502;7.414;2023-03-08T01:05:58;23.52;;;15.45;;
2542;SDS011;1116;51.502;7.414;2023-03-08T01:08:34;23.85;;;14.70;;
2542;SDS011;1116;51.502;7.414;2023-03-08T01:11:06;24.50;;;16.05;;
2542;SDS011;1116;51.502;7.414;2023-03-08T01:13:50;26.60;;;16.50;;
2542;SDS011;1116;51.502;7.414;2023-03-08T01:16:23;23.17;;;15.55;;
2542;SDS011;1116;51.502;7.414;2023-03-08T01:18:55;25.52;;;15.02;;
2542;SDS011;1116;51.502;7.414;2023-03-08T01:21:27;21.70;;;15.57;;
2542;SDS011;1116;51.502;7.414;2023-03-08T01:23:59;25.10;;;16.65;;
2542;SDS011;1116;51.502;7.414;2023-03-08T01:26:30;25.30;;;16.40;;
2542;SDS011;1116;51.502;7.414;2023-03-08T01:29:03;22.80;;;15.63;;
2542;SDS011;1116;51.502;7.414;2023-03-08T01:31:34;26.65;;;15.70;;
2542;SDS011;1116;51.502;7.414;2023-03-08T01:34:08;24.58;;;15.15;;
2542;SDS011;1116;51.502;7.414;2023-03-08T01:36:39;24.77;;;16.70;;
2542;SDS011;1116;51.502;7.414;2023-03-08T01:39:10;25.08;;;17.08;;
2542;SDS011;1116;51.502;7.414;2023-03-08T01:41:41;27.00;;;16.60;;
2542;SDS011;1116;51.502;7.414;2023-03-08T01:44:16;24.95;;;16.40;;
2542;SDS011;1116;51.502;7.414;2023-03-08T01:46:49;24.77;;;16.45;;
2542;SDS011;1116;51.502;7.414;2023-03-08T01:49:20;23.35;;;15.80;;
2542;SDS011;1116;51.502;7.414;2023-03-08T01:51:55;25.45;;;15.70;;
2542;SDS011;1116;51.502;7.414;2023-03-08T01:54:30;22.02;;;14.52;;
2542;SDS011;1116;51.502;7.414;2023-03-08T01:57:04;23.65;;;15.57;;
2542;SDS011;1116;51.502;7.414;2023-03-08T01:59:40;23.15;;;15.65;;
2542;SDS011;1116;51.502;7.414;2023-03-08T02:02:13;21.58;;;15.40;;
2542;SDS011;1116;51.502;7.414;2023-03-08T02:04:43;23.85;;;16.15;;
2542;SDS011;1116;51.502;7.414;2023-03-08T02:07:14;24.60;;;15.65;;
2542;SDS011;1116;51.502;7.414;2023-03-08T02:09:45;24.73;;;16.60;;
2542;SDS011;1116;51.502;7.414;2023-03-08T02:12:17;26.77;;;16.55;;
2542;SDS011;1116;51.502;7.414;2023-03-08T02:14:52;25.27;;;16.30;;
2542;SDS011;1116;51.502;7.414;2023-03-08T02:17:27;24.27;;;15.32;;
2542;SDS011;1116;51.502;7.414;2023-03-08T02:20:04;30.75;;;18.27;;
2542;SDS011;1116;51.502;7.414;2023-03-08T02:22:43;30.55;;;17.85;;
2542;SDS011;1116;51.502;7.414;2023-03-08T02:25:17;27.77;;;17.67;;
2542;SDS011;1116;51.502;7.414;2023-03-08T02:27:49;27.42;;;16.35;;
2542;SDS011;1116;51.502;7.414;2023-03-08T02:30:23;28.85;;;18.73;;
2542;SDS011;1116;51.502;7.414;2023-03-08T02:32:56;28.52;;;17.40;;
2542;SDS011;1116;51.502;7.414;2023-03-08T02:35:26;28.85;;;17.92;;
2542;SDS011;1116;51.502;7.414;2023-03-08T02:38:00;30.95;;;19.70;;
2542;SDS011;1116;51.502;7.414;2023-03-08T02:40:31;29.58;;;17.67;;
2542;SDS011;1116;51.502;7.414;2023-03-08T02:43:02;26.48;;;17.92;;
2542;SDS011;1116;51.502;7.414;2023-03-08T02:45:36;30.83;;;18.15;;
2542;SDS011;1116;51.502;7.414;2023-03-08T02:48:10;30.08;;;18.10;;
2542;SDS011;1116;51.502;7.414;2023-03-08T02:50:44;27.98;;;18.33;;
2542;SDS011;1116;51.502;7.414;2023-03-08T02:53:18;27.90;;;18.10;;
2542;SDS011;1116;51.502;7.414;2023-03-08T02:55:48;26.00;;;17.88;;
2542;SDS011;1116;51.502;7.414;2023-03-08T02:58:19;28.50;;;18.83;;
2542;SDS011;1116;51.502;7.414;2023-03-08T03:00:50;28.50;;;18.40;;
2542;SDS011;1116;51.502;7.414;2023-03-08T03:03:21;28.05;;;15.88;;
2542;SDS011;1116;51.502;7.414;2023-03-08T03:05:52;27.90;;;16.90;;
2542;SDS011;1116;51.502;7.414;2023-03-08T03:08:28;26.27;;;16.08;;
2542;SDS011;1116;51.502;7.414;2023-03-08T03:10:59;28.23;;;17.33;;
2542;SDS011;1116;51.502;7.414;2023-03-08T03:13:30;24.90;;;16.58;;
2542;SDS011;1116;51.502;7.414;2023-03-08T03:16:04;24.27;;;15.80;;
2542;SDS011;1116;51.502;7.414;2023-03-08T03:18:36;25.13;;;15.82;;
2542;SDS011;1116;51.502;7.414;2023-03-08T03:21:07;25.38;;;15.88;;
2542;SDS011;1116;51.502;7.414;2023-03-08T03:23:43;23.58;;;15.50;;
2542;SDS011;1116;51.502;7.414;2023-03-08T03:26:14;24.75;;;16.13;;
2542;SDS011;1116;51.502;7.414;2023-03-08T03:28:48;24.33;;;15.55;;
2542;SDS011;1116;51.502;7.414;2023-03-08T03:31:20;26.73;;;15.82;;
2542;SDS011;1116;51.502;7.414;2023-03-08T03:33:52;23.20;;;15.10;;
2542;SDS011;1116;51.502;7.414;2023-03-08T03:36:23;23.45;;;15.68;;
2542;SDS011;1116;51.502;7.414;2023-03-08T03:38:56;24.77;;;15.30;;
2542;SDS011;1116;51.502;7.414;2023-03-08T03:41:28;24.65;;;15.15;;
2542;SDS011;1116;51.502;7.414;2023-03-08T03:43:59;24.23;;;15.48;;
2542;SDS011;1116;51.502;7.414;2023-03-08T03:46:30;26.58;;;15.57;;
2542;SDS011;1116;51.502;7.414;2023-03-08T03:49:03;22.48;;;15.07;;
2542;SDS011;1116;51.502;7.414;2023-03-08T03:54:15;22.50;;;14.68;;
2542;SDS011;1116;51.502;7.414;2023-03-08T03:56:46;24.08;;;14.40;;
2542;SDS011;1116;51.502;7.414;2023-03-08T03:59:17;24.73;;;15.55;;
2542;SDS011;1116;51.502;7.414;2023-03-08T04:01:48;25.55;;;15.93;;
2542;SDS011;1116;51.502;7.414;2023-03-08T04:04:19;22.95;;;14.65;;
2542;SDS011;1116;51.502;7.414;2023-03-08T04:06:50;25.80;;;16.63;;
2542;SDS011;1116;51.502;7.414;2023-03-08T04:09:23;28.67;;;17.15;;
2542;SDS011;1116;51.502;7.414;2023-03-08T04:11:54;23.95;;;14.20;;
2542;SDS011;1116;51.502;7.414;2023-03-08T04:14:29;24.33;;;15.13;;
2542;SDS011;1116;51.502;7.414;2023-03-08T04:16:59;26.02;;;16.00;;
2542;SDS011;1116;51.502;7.414;2023-03-08T04:19:30;28.17;;;16.53;;
2542;SDS011;1116;51.502;7.414;2023-03-08T04:22:01;27.17;;;15.53;;
2542;SDS011;1116;51.502;7.414;2023-03-08T04:24:35;27.23;;;15.98;;
2542;SDS011;1116;51.502;7.414;2023-03-08T04:27:07;27.90;;;16.57;;
2542;SDS011;1116;51.502;7.414;2023-03-08T04:29:38;26.77;;;15.80;;
2542;SDS011;1116;51.502;7.414;2023-03-08T04:32:09;28.58;;;17.55;;
2542;SDS011;1116;51.502;7.414;2023-03-08T04:34:40;25.75;;;16.40;;
2542;SDS011;1116;51.502;7.414;2023-03-08T04:37:11;26.92;;;17.38;;
2542;SDS011;1116;51.502;7.414;2023-03-08T04:39:45;30.08;;;17.55;;
2542;SDS011;1116;51.502;7.414;2023-03-08T04:42:16;25.42;;;17.42;;
2542;SDS011;1116;51.502;7.414;2023-03-08T04:44:47;26.20;;;16.95;;
2542;SDS011;1116;51.502;7.414;2023-03-08T04:47:17;26.40;;;16.35;;
2542;SDS011;1116;51.502;7.414;2023-03-08T04:49:48;25.02;;;16.95;;
2542;SDS011;1116;51.502;7.414;2023-03-08T04:52:19;28.95;;;16.85;;
2542;SDS011;1116;51.502;7.414;2023-03-08T04:54:52;25.83;;;16.47;;
2542;SDS011;1116;51.502;7.414;2023-03-08T04:57:23;24.70;;;15.80;;
2542;SDS011;1116;51.502;7.414;2023-03-08T04:59:54;27.23;;;16.70;;
2542;SDS011;1116;51.502;7.414;2023-03-08T05:02:25;28.77;;;16.95;;
2542;SDS011;1116;51.502;7.414;2023-03-08T05:04:58;23.85;;;16.20;;
2542;SDS011;1116;51.502;7.414;2023-03-08T05:07:30;25.75;;;15.25;;
2542;SDS011;1116;51.502;7.414;2023-03-08T05:10:04;29.67;;;17.80;;
2542;SDS011;1116;51.502;7.414;2023-03-08T05:12:35;27.55;;;16.15;;
2542;SDS011;1116;51.502;7.414;2023-03-08T05:15:21;27.27;;;17.60;;
2542;SDS011;1116;51.502;7.414;2023-03-08T05:17:52;33.58;;;17.73;;
2542;SDS011;1116;51.502;7.414;2023-03-08T05:20:26;28.13;;;18.27;;
2542;SDS011;1116;51.502;7.414;2023-03-08T05:22:56;31.65;;;18.55;;
2542;SDS011;1116;51.502;7.414;2023-03-08T05:25:30;30.17;;;17.58;;
2542;SDS011;1116;51.502;7.414;2023-03-08T05:28:02;30.95;;;18.27;;
2542;SDS011;1116;51.502;7.414;2023-03-08T05:30:33;25.60;;;16.73;;
2542;SDS011;1116;51.502;7.414;2023-03-08T05:33:07;29.20;;;17.08;;
2542;SDS011;1116;51.502;7.414;2023-03-08T05:35:38;27.25;;;16.85;;
2542;SDS011;1116;51.502;7.414;2023-03-08T05:38:09;26.02;;;15.90;;
2542;SDS011;1116;51.502;7.414;2023-03-08T05:40:42;24.70;;;15.90;;
2542;SDS011;1116;51.502;7.414;2023-03-08T05:43:13;27.90;;;16.15;;
2542;SDS011;1116;51.502;7.414;2023-03-08T05:45:52;28.42;;;16.40;;
2542;SDS011;1116;51.502;7.414;2023-03-08T05:48:24;29.15;;;16.40;;
2542;SDS011;1116;51.502;7.414;2023-03-08T05:50:55;27.65;;;16.38;;
2542;SDS011;1116;51.502;7.414;2023-03-08T05:53:26;26.48;;;15.55;;
2542;SDS011;1116;51.502;7.414;2023-03-08T05:56:07;28.00;;;16.45;;
2542;SDS011;1116;51.502;7.414;2023-03-08T05:58:39;24.65;;;15.60;;
2542;SDS011;1116;51.502;7.414;2023-03-08T06:01:14;24.73;;;15.65;;
2542;SDS011;1116;51.502;7.414;2023-03-08T06:03:51;26.73;;;15.35;;
2542;SDS011;1116;51.502;7.414;2023-03-08T06:06:23;30.27;;;15.45;;
2542;SDS011;1116;51.502;7.414;2023-03-08T06:08:55;26.10;;;14.98;;
2542;SDS011;1116;51.502;7.414;2023-03-08T06:11:29;24.42;;;14.13;;
2542;SDS011;1116;51.502;7.414;2023-03-08T06:14:00;23.83;;;12.60;;
2542;SDS011;1116;51.502;7.414;2023-03-08T06:16:31;18.83;;;11.38;;
2542;SDS011;1116;51.502;7.414;2023-03-08T06:19:02;16.35;;;10.57;;
2542;SDS011;1116;51.502;7.414;2023-03-08T06:21:33;19.15;;;11.65;;
2542;SDS011;1116;51.502;7.414;2023-03-08T06:24:04;15.80;;;8.82;;
2542;SDS011;1116;51.502;7.414;2023-03-08T06:26:40;11.90;;;7.20;;
2542;SDS011;1116;51.502;7.414;2023-03-08T06:29:11;13.35;;;7.88;;
2542;SDS011;1116;51.502;7.414;2023-03-08T06:31:42;17.02;;;8.80;;
2542;SDS011;1116;51.502;7.414;2023-03-08T06:34:13;13.68;;;7.60;;
2542;SDS011;1116;51.502;7.414;2023-03-08T06:36:46;17.02;;;9.40;;
2542;SDS011;1116;51.502;7.414;2023-03-08T06:39:18;12.85;;;7.82;;
2542;SDS011;1116;51.502;7.414;2023-03-08T06:41:51;14.60;;;7.88;;
2542;SDS011;1116;51.502;7.414;2023-03-08T06:44:22;13.70;;;8.13;;
2542;SDS011;1116;51.502;7.414;2023-03-08T06:46:53;16.38;;;7.88;;
2542;SDS011;1116;51.502;7.414;2023-03-08T06:49:24;12.68;;;7.45;;
2542;SDS011;1116;51.502;7.414;2023-03-08T06:51:55;14.75;;;7.57;;
2542;SDS011;1116;51.502;7.414;2023-03-08T06:54:26;14.88;;;7.32;;
2542;SDS011;1116;51.502;7.414;2023-03-08T06:57:00;12.20;;;6.30;;
2542;SDS011;1116;51.502;7.414;2023-03-08T06:59:33;11.98;;;6.72;;
2542;SDS011;1116;51.502;7.414;2023-03-08T07:02:03;13.95;;;6.45;;
2542;SDS011;1116;51.502;7.414;2023-03-08T07:04:34;11.60;;;7.15;;
2542;SDS011;1116;51.502;7.414;2023-03-08T07:07:06;12.73;;;7.05;;
2542;SDS011;1116;51.502;7.414;2023-03-08T07:09:37;14.60;;;7.28;;
2542;SDS011;1116;51.502;7.414;2023-03-08T07:12:10;9.05;;;5.97;;
2542;SDS011;1116;51.502;7.414;2023-03-08T07:14:44;10.23;;;5.82;;
2542;SDS011;1116;51.502;7.414;2023-03-08T07:17:15;7.30;;;4.35;;
2542;SDS011;1116;51.502;7.414;2023-03-08T07:19:46;5.82;;;3.50;;
2542;SDS011;1116;51.502;7.414;2023-03-08T07:22:18;7.88;;;3.58;;
2542;SDS011;1116;51.502;7.414;2023-03-08T07:24:49;6.22;;;3.80;;
2542;SDS011;1116;51.502;7.414;2023-03-08T07:27:25;7.30;;;3.60;;
2542;SDS011;1116;51.502;7.414;2023-03-08T07:29:56;6.15;;;3.20;;
2542;SDS011;1116;51.502;7.414;2023-03-08T07:32:29;4.38;;;3.13;;
2542;SDS011;1116;51.502;7.414;2023-03-08T07:35:00;8.27;;;3.30;;
2542;SDS011;1116;51.502;7.414;2023-03-08T07:37:31;4.05;;;3.15;;
2542;SDS011;1116;51.502;7.414;2023-03-08T07:40:01;5.35;;;3.15;;
2542;SDS011;1116;51.502;7.414;2023-03-08T07:42:36;8.32;;;3.65;;
2542;SDS011;1116;51.502;7.414;2023-03-08T07:45:07;6.28;;;3.70;;
2542;SDS011;1116;51.502;7.414;2023-03-08T07:47:40;6.10;;;3.65;;
2542;SDS011;1116;51.502;7.414;2023-03-08T07:50:13;4.80;;;3.40;;
2542;SDS011;1116;51.502;7.414;2023-03-08T07:52:43;6.10;;;3.33;;
2542;SDS011;1116;51.502;7.414;2023-03-08T07:55:14;6.15;;;2.85;;
2542;SDS011;1116;51.502;7.414;2023-03-08T07:57:48;4.78;;;3.20;;
2542;SDS011;1116;51.502;7.414;2023-03-08T08:00:19;7.47;;;3.20;;
2542;SDS011;1116;51.502;7.414;2023-03-08T08:02:53;3.53;;;2.70;;
2542;SDS011;1116;51.502;7.414;2023-03-08T08:05:24;5.07;;;2.97;;
2542;SDS011;1116;51.502;7.414;2023-03-08T08:07:55;6.63;;;3.13;;
2542;SDS011;1116;51.502;7.414;2023-03-08T08:10:26;5.75;;;3.13;;
2542;SDS011;1116;51.502;7.414;2023-03-08T08:12:59;5.95;;;2.90;;
2542;SDS011;1116;51.502;7.414;2023-03-08T08:15:30;5.72;;;3.15;;
2542;SDS011;1116;51.502;7.414;2023-03-08T08:18:01;5.35;;;2.50;;
2542;SDS011;1116;51.502;7.414;2023-03-08T08:20:33;4.80;;;2.95;;
2542;SDS011;1116;51.502;7.414;2023-03-08T08:23:05;3.42;;;2.53;;
2542;SDS011;1116;51.502;7.414;2023-03-08T08:25:37;5.55;;;2.70;;
2542;SDS011;1116;51.502;7.414;2023-03-08T08:28:12;6.43;;;3.38;;
2542;SDS011;1116;51.502;7.414;2023-03-08T08:30:43;3.97;;;2.78;;
2542;SDS011;1116;51.502;7.414;2023-03-08T08:33:14;4.40;;;2.05;;
2542;SDS011;1116;51.502;7.414;2023-03-08T08:35:44;6.90;;;3.30;;
2542;SDS011;1116;51.502;7.414;2023-03-08T08:38:15;7.13;;;3.80;;
2542;SDS011;1116;51.502;7.414;2023-03-08T08:40:49;3.95;;;3.03;;
2542;SDS011;1116;51.502;7.414;2023-03-08T08:43:23;4.93;;;3.25;;
2542;SDS011;1116;51.502;7.414;2023-03-08T08:45:54;5.40;;;3.50;;
2542;SDS011;1116;51.502;7.414;2023-03-08T08:48:27;5.10;;;3.00;;
2542;SDS011;1116;51.502;7.414;2023-03-08T08:50:59;3.35;;;2.65;;
2542;SDS011;1116;51.502;7.414;2023-03-08T08:53:30;4.07;;;2.80;;
2542;SDS011;1116;51.502;7.414;2023-03-08T08:56:08;4.65;;;2.67;;
2542;SDS011;1116;51.502;7.414;2023-03-08T08:58:56;3.03;;;2.40;;
2542;SDS011;1116;51.502;7.414;2023-03-08T09:01:30;4.07;;;2.33;;
2542;SDS011;1116;51.502;7.414;2023-03-08T09:04:10;3.08;;;2.05;;
2542;SDS011;1116;51.502;7.414;2023-03-08T09:06:43;2.83;;;2.25;;
2542;SDS011;1116;51.502;7.414;2023-03-08T09:09:14;2.08;;;1.88;;
2542;SDS011;1116;51.502;7.414;2023-03-08T09:11:46;2.95;;;1.88;;
2542;SDS011;1116;51.502;7.414;2023-03-08T09:14:24;2.25;;;1.67;;
2542;SDS011;1116;51.502;7.414;2023-03-08T09:19:42;3.05;;;2.15;;
2542;SDS011;1116;51.502;7.414;2023-03-08T09:22:16;2.25;;;2.05;;
2542;SDS011;1116;51.502;7.414;2023-03-08T09:24:48;1.80;;;1.65;;
2542;SDS011;1116;51.502;7.414;2023-03-08T09:27:18;3.40;;;2.28;;
2542;SDS011;1116;51.502;7.414;2023-03-08T09:29:52;2.13;;;1.92;;
2542;SDS011;1116;51.502;7.414;2023-03-08T09:32:23;1.80;;;1.70;;
2542;SDS011;1116;51.502;7.414;2023-03-08T09:34:54;5.22;;;2.40;;
2542;SDS011;1116;51.502;7.414;2023-03-08T09:37:27;3.50;;;2.63;;
2542;SDS011;1116;51.502;7.414;2023-03-08T09:39:58;3.65;;;3.00;;
2542;SDS011;1116;51.502;7.414;2023-03-08T09:42:38;4.25;;;2.78;;
2542;SDS011;1116;51.502;7.414;2023-03-08T09:48:11;3.33;;;2.88;;
2542;SDS011;1116;51.502;7.414;2023-03-08T09:50:46;3.92;;;2.72;;
2542;SDS011;1116;51.502;7.414;2023-03-08T09:53:20;3.63;;;2.70;;
2542;SDS011;1116;51.502;7.414;2023-03-08T09:56:00;3.25;;;2.85;;
2542;SDS011;1116;51.502;7.414;2023-03-08T09:58:36;2.58;;;2.15;;
2542;SDS011;1116;51.502;7.414;2023-03-08T10:01:23;3.15;;;2.83;;
2542;SDS011;1116;51.502;7.414;2023-03-08T10:04:10;3.78;;;2.80;;
2542;SDS011;1116;51.502;7.414;2023-03-08T10:07:02;3.00;;;2.70;;
2542;SDS011;1116;51.502;7.414;2023-03-08T10:12:38;2.90;;;2.60;;
2542;SDS011;1116;51.502;7.414;2023-03-08T10:15:18;4.28;;;3.80;;
2542;SDS011;1116;51.502;7.414;2023-03-08T10:18:12;2.60;;;2.40;;
2542;SDS011;1116;51.502;7.414;2023-03-08T10:20:48;2.88;;;2.47;;
2542;SDS011;1116;51.502;7.414;2023-03-08T10:23:40;2.67;;;2.47;;
2542;SDS011;1116;51.502;7.414;2023-03-08T10:26:11;4.18;;;2.85;;
2542;SDS011;1116;51.502;7.414;2023-03-08T10:31:26;3.63;;;3.13;;
2542;SDS011;1116;51.502;7.414;2023-03-08T10:34:08;3.20;;;2.70;;
2542;SDS011;1116;51.502;7.414;2023-03-08T10:36:46;3.20;;;2.90;;
2542;SDS011;1116;51.502;7.414;2023-03-08T10:39:19;3.40;;;3.10;;
2542;SDS011;1116;51.502;7.414;2023-03-08T10:41:51;2.85;;;2.65;;
2542;SDS011;1116;51.502;7.414;2023-03-08T10:44:29;2.63;;;2.42;;
2542;SDS011;1116;51.502;7.414;2023-03-08T10:47:04;2.22;;;2.03;;
2542;SDS011;1116;51.502;7.414;2023-03-08T10:50:01;2.88;;;2.50;;
2542;SDS011;1116;51.502;7.414;2023-03-08T10:52:34;2.38;;;2.17;;
2542;SDS011;1116;51.502;7.414;2023-03-08T10:55:10;4.43;;;2.70;;
2542;SDS011;1116;51.502;7.414;2023-03-08T10:57:49;3.40;;;2.60;;
2542;SDS011;1116;51.502;7.414;2023-03-08T11:00:25;2.38;;;2.20;;
2542;SDS011;1116;51.502;7.414;2023-03-08T11:03:09;2.30;;;2.10;;
2542;SDS011;1116;51.502;7.414;2023-03-08T11:05:56;2.15;;;1.95;;
2542;SDS011;1116;51.502;7.414;2023-03-08T11:08:32;2.08;;;1.98;;
2542;SDS011;1116;51.502;7.414;2023-03-08T11:11:07;2.33;;;2.13;;
2542;SDS011;1116;51.502;7.414;2023-03-08T11:13:40;1.85;;;1.75;;
2542;SDS011;1116;51.502;7.414;2023-03-08T11:19:10;2.55;;;2.08;;
2542;SDS011;1116;51.502;7.414;2023-03-08T11:22:15;2.75;;;2.13;;
2542;SDS011;1116;51.502;7.414;2023-03-08T11:24:56;4.43;;;2.33;;
2542;SDS011;1116;51.502;7.414;2023-03-08T11:30:39;2.73;;;2.50;;
2542;SDS011;1116;51.502;7.414;2023-03-08T11:33:32;6.78;;;2.50;;
2542;SDS011;1116;51.502;7.414;2023-03-08T11:36:15;4.90;;;3.25;;
2542;SDS011;1116;51.502;7.414;2023-03-08T11:38:56;2.92;;;2.58;;
2542;SDS011;1116;51.502;7.414;2023-03-08T11:41:33;3.13;;;2.83;;
2542;SDS011;1116;51.502;7.414;2023-03-08T11:44:15;2.97;;;2.77;;
2542;SDS011;1116;51.502;7.414;2023-03-08T11:50:12;3.35;;;2.47;;
2542;SDS011;1116;51.502;7.414;2023-03-08T11:53:00;2.85;;;2.65;;
2542;SDS011;1116;51.502;7.414;2023-03-08T11:55:44;3.00;;;2.50;;
2542;SDS011;1116;51.502;7.414;2023-03-08T11:58:33;2.80;;;2.60;;
2542;SDS011;1116;51.502;7.414;2023-03-08T12:01:08;2.72;;;2.53;;
2542;SDS011;1116;51.502;7.414;2023-03-08T12:03:50;3.70;;;3.40;;
2542;SDS011;1116;51.502;7.414;2023-03-08T12:06:24;4.00;;;3.60;;
2542;SDS011;1116;51.502;7.414;2023-03-08T12:09:00;3.42;;;3.13;;
2542;SDS011;1116;51.502;7.414;2023-03-08T12:11:39;3.75;;;3.35;;
2542;SDS011;1116;51.502;7.414;2023-03-08T12:14:13;4.10;;;3.72;;
2542;SDS011;1116;51.502;7.414;2023-03-08T12:16:50;3.20;;;2.90;;
2542;SDS011;1116;51.502;7.414;2023-03-08T12:19:29;3.40;;;3.10;;
2542;SDS011;1116;51.502;7.414;2023-03-08T12:22:19;2.92;;;2.70;;
2542;SDS011;1116;51.502;7.414;2023-03-08T12:25:03;3.58;;;2.95;;
2542;SDS011;1116;51.502;7.414;2023-03-08T12:27:43;3.55;;;3.25;;
2542;SDS011;1116;51.502;7.414;2023-03-08T12:30:19;4.47;;;3.13;;
2542;SDS011;1116;51.502;7.414;2023-03-08T12:32:55;3.50;;;3.20;;
2542;SDS011;1116;51.502;7.414;2023-03-08T12:35:28;3.75;;;3.40;;
2542;SDS011;1116;51.502;7.414;2023-03-08T12:38:01;3.83;;;3.47;;
2542;SDS011;1116;51.502;7.414;2023-03-08T12:40:35;4.10;;;3.70;;
2542;SDS011;1116;51.502;7.414;2023-03-08T12:43:12;4.10;;;3.70;;
2542;SDS011;1116;51.502;7.414;2023-03-08T12:46:00;3.38;;;3.03;;
2542;SDS011;1116;51.502;7.414;2023-03-08T12:48:34;3.88;;;3.20;;
2542;SDS011;1116;51.502;7.414;2023-03-08T12:51:16;4.78;;;4.03;;
2542;SDS011;1116;51.502;7.414;2023-03-08T12:53:56;4.22;;;3.83;;
2542;SDS011;1116;51.502;7.414;2023-03-08T12:56:30;4.95;;;4.20;;
2542;SDS011;1116;51.502;7.414;2023-03-08T13:05:02;7.30;;;4.25;;
2542;SDS011;1116;51.502;7.414;2023-03-08T13:07:48;5.25;;;3.88;;
2542;SDS011;1116;51.502;7.414;2023-03-08T13:10:29;4.30;;;3.90;;
2542;SDS011;1116;51.502;7.414;2023-03-08T13:13:14;4.20;;;3.80;;
2542;SDS011;1116;51.502;7.414;2023-03-08T13:19:01;5.05;;;4.05;;
2542;SDS011;1116;51.502;7.414;2023-03-08T13:21:47;7.10;;;4.72;;
2542;SDS011;1116;51.502;7.414;2023-03-08T13:24:26;5.43;;;4.88;;
2542;SDS011;1116;51.502;7.414;2023-03-08T13:27:20;6.45;;;4.70;;
2542;SDS011;1116;51.502;7.414;2023-03-08T13:30:06;5.20;;;4.70;;
2542;SDS011;1116;51.502;7.414;2023-03-08T13:32:49;6.05;;;4.55;;
2542;SDS011;1116;51.502;7.414;2023-03-08T13:35:21;5.47;;;4.68;;
2542;SDS011;1116;51.502;7.414;2023-03-08T13:38:04;5.18;;;4.68;;
2542;SDS011;1116;51.502;7.414;2023-03-08T13:40:35;4.63;;;4.20;;
2542;SDS011;1116;51.502;7.414;2023-03-08T13:43:12;4.93;;;4.40;;
2542;SDS011;1116;51.502;7.414;2023-03-08T13:45:45;5.32;;;4.30;;
2542;SDS011;1116;51.502;7.414;2023-03-08T13:48:19;5.47;;;4.47;;
2542;SDS011;1116;51.502;7.414;2023-03-08T13:50:51;6.90;;;5.70;;
2542;SDS011;1116;51.502;7.414;2023-03-08T13:53:23;6.13;;;4.90;;
2542;SDS011;1116;51.502;7.414;2023-03-08T13:55:57;5.82;;;5.00;;
2542;SDS011;1116;51.502;7.414;2023-03-08T13:58:31;6.13;;;5.03;;
2542;SDS011;1116;51.502;7.414;2023-03-08T14:01:10;5.90;;;5.20;;
2542;SDS011;1116;51.502;7.414;2023-03-08T14:03:45;5.90;;;5.30;;
2542;SDS011;1116;51.502;7.414;2023-03-08T14:06:16;6.65;;;5.78;;
2542;SDS011;1116;51.502;7.414;2023-03-08T14:08:50;6.50;;;5.90;;
2542;SDS011;1116;51.502;7.414;2023-03-08T14:11:25;7.90;;;6.05;;
2542;SDS011;1116;51.502;7.414;2023-03-08T14:13:59;6.50;;;5.80;;
2542;SDS011;1116;51.502;7.414;2023-03-08T14:16:34;6.30;;;5.70;;
2542;SDS011;1116;51.502;7.414;2023-03-08T14:19:17;6.20;;;5.50;;
2542;SDS011;1116;51.502;7.414;2023-03-08T14:21:53;6.60;;;5.90;;
2542;SDS011;1116;51.502;7.414;2023-03-08T14:24:26;8.40;;;6.63;;
2542;SDS011;1116;51.502;7.414;2023-03-08T14:27:00;7.20;;;5.70;;
2542;SDS011;1116;51.502;7.414;2023-03-08T14:29:32;7.63;;;6.60;;
2542;SDS011;1116;51.502;7.414;2023-03-08T14:32:05;8.00;;;6.90;;
2542;SDS011;1116;51.502;7.414;2023-03-08T14:37:51;7.13;;;6.35;;
2542;SDS011;1116;51.502;7.414;2023-03-08T14:40:30;7.38;;;6.57;;
2542;SDS011;1116;51.502;7.414;2023-03-08T14:43:03;7.05;;;6.35;;
2542;SDS011;1116;51.502;7.414;2023-03-08T14:45:36;9.88;;;6.43;;
2542;SDS011;1116;51.502;7.414;2023-03-08T14:48:20;7.38;;;6.30;;
2542;SDS011;1116;51.502;7.414;2023-03-08T14:50:56;6.97;;;6.22;;
2542;SDS011;1116;51.502;7.414;2023-03-08T14:53:32;8.18;;;6.50;;
2542;SDS011;1116;51.502;7.414;2023-03-08T14:56:05;7.63;;;6.93;;
2542;SDS011;1116;51.502;7.414;2023-03-08T14:58:41;7.88;;;6.80;;
2542;SDS011;1116;51.502;7.414;2023-03-08T15:01:22;8.93;;;7.87;;
2542;SDS011;1116;51.502;7.414;2023-03-08T15:03:54;8.57;;;6.80;;
2542;SDS011;1116;51.502;7.414;2023-03-08T15:06:29;8.60;;;7.00;;
2542;SDS011;1116;51.502;7.414;2023-03-08T15:09:02;8.77;;;6.80;;
2542;SDS011;1116;51.502;7.414;2023-03-08T15:11:36;7.72;;;6.82;;
2542;SDS011;1116;51.502;7.414;2023-03-08T15:14:08;8.77;;;7.30;;
2542;SDS011;1116;51.502;7.414;2023-03-08T15:16:40;9.40;;;7.55;;
2542;SDS011;1116;51.502;7.414;2023-03-08T15:19:11;10.40;;;7.15;;
2542;SDS011;1116;51.502;7.414;2023-03-08T15:21:45;7.72;;;6.85;;
2542;SDS011;1116;51.502;7.414;2023-03-08T15:24:17;8.07;;;7.20;;
2542;SDS011;1116;51.502;7.414;2023-03-08T15:26:48;8.98;;;7.70;;
2542;SDS011;1116;51.502;7.414;2023-03-08T15:29:23;8.40;;;7.50;;
2542;SDS011;1116;51.502;7.414;2023-03-08T15:31:55;7.95;;;7.10;;
2542;SDS011;1116;51.502;7.414;2023-03-08T15:34:27;11.40;;;7.90;;
2542;SDS011;1116;51.502;7.414;2023-03-08T15:37:00;8.85;;;7.95;;
2542;SDS011;1116;51.502;7.414;2023-03-08T15:42:08;10.40;;;7.80;;
2542;SDS011;1116;51.502;7.414;2023-03-08T15:44:39;10.05;;;8.40;;
2542;SDS011;1116;51.502;7.414;2023-03-08T15:47:09;9.38;;;7.43;;
2542;SDS011;1116;51.502;7.414;2023-03-08T15:49:40;10.80;;;8.40;;
2542;SDS011;1116;51.502;7.414;2023-03-08T15:52:14;10.10;;;8.82;;
2542;SDS011;1116;51.502;7.414;2023-03-08T15:54:47;9.90;;;8.27;;
2542;SDS011;1116;51.502;7.414;2023-03-08T15:57:18;9.38;;;7.72;;
2542;SDS011;1116;51.502;7.414;2023-03-08T15:59:52;11.40;;;8.70;;
2542;SDS011;1116;51.502;7.414;2023-03-08T16:02:37;8.90;;;8.00;;
2542;SDS011;1116;51.502;7.414;2023-03-08T16:05:10;10.63;;;8.93;;
2542;SDS011;1116;51.502;7.414;2023-03-08T16:07:53;11.55;;;9.50;;
2542;SDS011;1116;51.502;7.414;2023-03-08T16:10:25;10.73;;;9.10;;
2542;SDS011;1116;51.502;7.414;2023-03-08T16:12:57;12.45;;;10.75;;
2542;SDS011;1116;51.502;7.414;2023-03-08T16:15:28;16.42;;;10.20;;
2542;SDS011;1116;51.502;7.414;2023-03-08T16:17:59;12.38;;;9.82;;
2542;SDS011;1116;51.502;7.414;2023-03-08T16:20:30;13.20;;;9.93;;
2542;SDS011;1116;51.502;7.414;2023-03-08T16:23:04;12.38;;;9.55;;